sensor_id;sensor_type;location;lat;lon;timestamp;temperature;humidity
19174;DHT22;9719;49.322;8.536;2023-09-12T00:01:49;19.60;99.90
19174;DHT22;9719;49.322;8.536;2023-09-12T00:06:51;19.60;99.90
19174;DHT22;9719;49.322;8.536;2023-09-12T00:11:53;19.50;99.90
19174;DHT22;9719;49.322;8.536;2023-09-12T00:16:56;19.80;99.90
19174;DHT22;9719;49.322;8.536;2023-09-12T00:21:58;19.90;99.90
19174;DHT22;9719;49.322;8.536;2023-09-12T00:27:00;19.90;99.90
19174;DHT22;9719;49.322;8.536;2023-09-12T00:32:07;19.90;99.90
19174;DHT22;9719;49.322;8.536;2023-09-12T00:37:09;19.60;99.90
19174;DHT22;9719;49.322;8.536;2023-09-12T00:42:12;19.00;99.90
19174;DHT22;9719;49.322;8.536;2023-09-12T00:47:15;19.10;99.90
19174;DHT22;9719;49.322;8.536;2023-09-12T00:52:18;19.10;99.90
19174;DHT22;9719;49.322;8.536;2023-09-12T00:57:21;19.20;99.90
19174;DHT22;9719;49.322;8.536;2023-09-12T01:02:25;19.30;99.90
19174;DHT22;9719;49.322;8.536;2023-09-12T01:07:28;19.20;99.90
19174;DHT22;9719;49.322;8.536;2023-09-12T01:12:30;19.20;99.90
19174;DHT22;9719;49.322;8.536;2023-09-12T01:17:33;19.00;99.90
19174;DHT22;9719;49.322;8.536;2023-09-12T01:22:56;18.70;99.90
19174;DHT22;9719;49.322;8.536;2023-09-12T01:28:03;18.50;99.90
19174;DHT22;9719;49.322;8.536;2023-09-12T01:33:07;18.60;99.90
19174;DHT22;9719;49.322;8.536;2023-09-12T01:38:10;18.60;99.90
19174;DHT22;9719;49.322;8.536;2023-09-12T01:43:16;18.80;99.90
19174;DHT22;9719;49.322;8.536;2023-09-12T01:48:20;19.00;99.90
19174;DHT22;9719;49.322;8.536;2023-09-12T01:53:22;18.80;99.90
19174;DHT22;9719;49.322;8.536;2023-09-12T01:58:26;18.70;99.90
19174;DHT22;9719;49.322;8.536;2023-09-12T02:03:28;18.70;99.90
19174;DHT22;9719;49.322;8.536;2023-09-12T02:08:30;18.70;99.90
19174;DHT22;9719;49.322;8.536;2023-09-12T02:13:33;18.70;99.90
19174;DHT22;9719;49.322;8.536;2023-09-12T02:18:35;18.60;99.90
19174;DHT22;9719;49.322;8.536;2023-09-12T02:23:37;18.60;99.90
19174;DHT22;9719;49.322;8.536;2023-09-12T02:28:40;18.60;99.90
19174;DHT22;9719;49.322;8.536;2023-09-12T02:33:42;18.40;99.90
19174;DHT22;9719;49.322;8.536;2023-09-12T02:38:44;18.50;99.90
19174;DHT22;9719;49.322;8.536;2023-09-12T02:43:47;18.40;99.90
19174;DHT22;9719;49.322;8.536;2023-09-12T02:48:49;18.50;99.90
19174;DHT22;9719;49.322;8.536;2023-09-12T02:53:51;18.60;99.90
19174;DHT22;9719;49.322;8.536;2023-09-12T02:58:54;18.50;99.90
19174;DHT22;9719;49.322;8.536;2023-09-12T03:03:57;18.50;99.90
19174;DHT22;9719;49.322;8.536;2023-09-12T03:08:59;18.40;99.90
19174;DHT22;9719;49.322;8.536;2023-09-12T03:14:02;18.50;99.90
19174;DHT22;9719;49.322;8.536;2023-09-12T03:19:04;18.20;99.90
19174;DHT22;9719;49.322;8.536;2023-09-12T03:24:06;18.10;99.90
19174;DHT22;9719;49.322;8.536;2023-09-12T03:29:10;18.30;99.90
19174;DHT22;9719;49.322;8.536;2023-09-12T03:34:11;18.60;99.90
19174;DHT22;9719;49.322;8.536;2023-09-12T03:39:13;18.50;99.90
19174;DHT22;9719;49.322;8.536;2023-09-12T03:44:16;18.70;99.90
19174;DHT22;9719;49.322;8.536;2023-09-12T03:49:18;18.70;99.90
19174;DHT22;9719;49.322;8.536;2023-09-12T03:54:20;18.70;99.90
19174;DHT22;9719;49.322;8.536;2023-09-12T03:59:37;18.70;99.90
19174;DHT22;9719;49.322;8.536;2023-09-12T04:04:39;18.70;99.90
19174;DHT22;9719;49.322;8.536;2023-09-12T04:09:40;18.90;99.90
19174;DHT22;9719;49.322;8.536;2023-09-12T04:14:43;19.10;99.90
19174;DHT22;9719;49.322;8.536;2023-09-12T04:19:45;19.30;99.90
19174;DHT22;9719;49.322;8.536;2023-09-12T04:24:47;19.50;99.90
19174;DHT22;9719;49.322;8.536;2023-09-12T04:29:49;19.60;99.90
19174;DHT22;9719;49.322;8.536;2023-09-12T04:34:51;19.90;99.90
19174;DHT22;9719;49.322;8.536;2023-09-12T04:39:53;19.70;99.80
19174;DHT22;9719;49.322;8.536;2023-09-12T04:44:56;19.80;99.40
19174;DHT22;9719;49.322;8.536;2023-09-12T04:49:58;19.80;98.60
19174;DHT22;9719;49.322;8.536;2023-09-12T04:55:00;19.80;98.50
19174;DHT22;9719;49.322;8.536;2023-09-12T05:00:06;19.80;98.30
19174;DHT22;9719;49.322;8.536;2023-09-12T05:05:08;19.90;98.10
19174;DHT22;9719;49.322;8.536;2023-09-12T05:10:10;20.00;97.10
19174;DHT22;9719;49.322;8.536;2023-09-12T05:15:13;20.00;97.00
19174;DHT22;9719;49.322;8.536;2023-09-12T05:20:15;19.90;96.80
19174;DHT22;9719;49.322;8.536;2023-09-12T05:25:16;20.00;97.70
19174;DHT22;9719;49.322;8.536;2023-09-12T05:30:19;20.00;96.70
19174;DHT22;9719;49.322;8.536;2023-09-12T05:35:21;20.10;97.30
19174;DHT22;9719;49.322;8.536;2023-09-12T05:40:23;20.00;96.10
19174;DHT22;9719;49.322;8.536;2023-09-12T05:45:26;20.20;95.50
19174;DHT22;9719;49.322;8.536;2023-09-12T05:50:30;20.20;95.30
19174;DHT22;9719;49.322;8.536;2023-09-12T05:55:31;20.20;95.20
19174;DHT22;9719;49.322;8.536;2023-09-12T06:00:34;20.20;95.10
19174;DHT22;9719;49.322;8.536;2023-09-12T06:05:36;20.30;94.90
19174;DHT22;9719;49.322;8.536;2023-09-12T06:10:37;20.30;94.90
19174;DHT22;9719;49.322;8.536;2023-09-12T06:15:40;20.30;94.70
19174;DHT22;9719;49.322;8.536;2023-09-12T06:20:42;20.10;95.20
19174;DHT22;9719;49.322;8.536;2023-09-12T06:25:44;20.00;95.40
19174;DHT22;9719;49.322;8.536;2023-09-12T06:30:47;20.50;94.30
19174;DHT22;9719;49.322;8.536;2023-09-12T06:35:49;21.00;92.80
19174;DHT22;9719;49.322;8.536;2023-09-12T06:40:53;21.50;90.30
19174;DHT22;9719;49.322;8.536;2023-09-12T06:45:57;21.80;87.20
19174;DHT22;9719;49.322;8.536;2023-09-12T06:50:58;21.90;86.70
19174;DHT22;9719;49.322;8.536;2023-09-12T06:56:00;22.20;86.30
19174;DHT22;9719;49.322;8.536;2023-09-12T07:01:03;22.80;83.60
19174;DHT22;9719;49.322;8.536;2023-09-12T07:06:05;22.90;81.20
19174;DHT22;9719;49.322;8.536;2023-09-12T07:11:08;23.00;80.80
19174;DHT22;9719;49.322;8.536;2023-09-12T07:16:11;23.20;80.30
19174;DHT22;9719;49.322;8.536;2023-09-12T07:21:13;23.40;80.00
19174;DHT22;9719;49.322;8.536;2023-09-12T07:26:15;23.20;79.70
19174;DHT22;9719;49.322;8.536;2023-09-12T07:31:18;23.40;80.10
19174;DHT22;9719;49.322;8.536;2023-09-12T07:36:19;23.50;80.00
19174;DHT22;9719;49.322;8.536;2023-09-12T07:41:21;23.70;80.10
19174;DHT22;9719;49.322;8.536;2023-09-12T07:46:24;23.80;79.60
19174;DHT22;9719;49.322;8.536;2023-09-12T07:51:26;24.00;79.00
19174;DHT22;9719;49.322;8.536;2023-09-12T07:56:27;24.50;77.70
19174;DHT22;9719;49.322;8.536;2023-09-12T08:01:30;24.50;78.60
19174;DHT22;9719;49.322;8.536;2023-09-12T08:06:32;24.70;77.00
19174;DHT22;9719;49.322;8.536;2023-09-12T08:11:34;25.10;77.00
19174;DHT22;9719;49.322;8.536;2023-09-12T08:16:37;25.30;75.10
19174;DHT22;9719;49.322;8.536;2023-09-12T08:21:39;25.30;74.80
19174;DHT22;9719;49.322;8.536;2023-09-12T08:26:40;25.40;74.50
19174;DHT22;9719;49.322;8.536;2023-09-12T08:31:43;25.60;74.40
19174;DHT22;9719;49.322;8.536;2023-09-12T08:36:47;25.80;73.30
19174;DHT22;9719;49.322;8.536;2023-09-12T08:41:49;26.00;71.80
19174;DHT22;9719;49.322;8.536;2023-09-12T08:46:52;26.00;71.70
19174;DHT22;9719;49.322;8.536;2023-09-12T08:51:53;26.20;71.60
19174;DHT22;9719;49.322;8.536;2023-09-12T08:56:55;26.20;71.00
19174;DHT22;9719;49.322;8.536;2023-09-12T09:01:59;26.50;70.10
19174;DHT22;9719;49.322;8.536;2023-09-12T09:07:03;27.00;68.90
19174;DHT22;9719;49.322;8.536;2023-09-12T09:12:07;27.10;66.40
19174;DHT22;9719;49.322;8.536;2023-09-12T09:17:10;27.00;68.40
19174;DHT22;9719;49.322;8.536;2023-09-12T09:22:13;27.00;67.50
19174;DHT22;9719;49.322;8.536;2023-09-12T09:27:32;27.20;66.10
19174;DHT22;9719;49.322;8.536;2023-09-12T09:32:36;27.50;64.10
19174;DHT22;9719;49.322;8.536;2023-09-12T09:37:38;27.60;63.80
19174;DHT22;9719;49.322;8.536;2023-09-12T09:42:40;27.70;62.70
19174;DHT22;9719;49.322;8.536;2023-09-12T09:47:45;28.00;63.80
19174;DHT22;9719;49.322;8.536;2023-09-12T09:52:53;28.00;59.40
19174;DHT22;9719;49.322;8.536;2023-09-12T09:57:55;28.20;50.70
19174;DHT22;9719;49.322;8.536;2023-09-12T10:02:58;28.40;46.30
19174;DHT22;9719;49.322;8.536;2023-09-12T10:08:02;28.80;43.90
19174;DHT22;9719;49.322;8.536;2023-09-12T10:13:06;28.80;43.50
19174;DHT22;9719;49.322;8.536;2023-09-12T10:18:15;28.90;43.10
19174;DHT22;9719;49.322;8.536;2023-09-12T10:23:22;29.20;42.60
19174;DHT22;9719;49.322;8.536;2023-09-12T10:28:26;28.90;58.40
19174;DHT22;9719;49.322;8.536;2023-09-12T10:33:29;28.10;62.00
19174;DHT22;9719;49.322;8.536;2023-09-12T10:38:33;27.60;63.20
19174;DHT22;9719;49.322;8.536;2023-09-12T10:43:37;27.70;63.10
19174;DHT22;9719;49.322;8.536;2023-09-12T10:48:41;27.90;62.50
19174;DHT22;9719;49.322;8.536;2023-09-12T10:53:46;28.50;45.20
19174;DHT22;9719;49.322;8.536;2023-09-12T10:59:08;29.90;40.90
19174;DHT22;9719;49.322;8.536;2023-09-12T11:04:32;30.10;39.40
19174;DHT22;9719;49.322;8.536;2023-09-12T11:09:34;30.10;39.90
19174;DHT22;9719;49.322;8.536;2023-09-12T11:15:03;30.10;36.10
19174;DHT22;9719;49.322;8.536;2023-09-12T11:20:08;30.30;40.80
19174;DHT22;9719;49.322;8.536;2023-09-12T11:25:18;30.60;30.60
19174;DHT22;9719;49.322;8.536;2023-09-12T11:30:21;30.80;32.10
19174;DHT22;9719;49.322;8.536;2023-09-12T11:35:25;31.10;29.40
19174;DHT22;9719;49.322;8.536;2023-09-12T11:40:43;30.60;27.00
19174;DHT22;9719;49.322;8.536;2023-09-12T11:45:46;30.90;27.00
19174;DHT22;9719;49.322;8.536;2023-09-12T11:50:54;31.10;26.30
19174;DHT22;9719;49.322;8.536;2023-09-12T11:55:57;31.10;27.10
19174;DHT22;9719;49.322;8.536;2023-09-12T12:00:59;31.30;27.50
19174;DHT22;9719;49.322;8.536;2023-09-12T12:06:02;31.20;27.10
19174;DHT22;9719;49.322;8.536;2023-09-12T12:11:06;31.60;28.20
19174;DHT22;9719;49.322;8.536;2023-09-12T12:16:15;31.60;27.60
19174;DHT22;9719;49.322;8.536;2023-09-12T12:21:18;31.70;26.70
19174;DHT22;9719;49.322;8.536;2023-09-12T12:26:20;31.90;26.60
19174;DHT22;9719;49.322;8.536;2023-09-12T12:31:22;32.20;27.10
19174;DHT22;9719;49.322;8.536;2023-09-12T12:36:26;32.50;24.80
19174;DHT22;9719;49.322;8.536;2023-09-12T12:41:29;32.40;25.30
19174;DHT22;9719;49.322;8.536;2023-09-12T12:46:31;31.90;26.20
19174;DHT22;9719;49.322;8.536;2023-09-12T12:51:34;32.30;25.60
19174;DHT22;9719;49.322;8.536;2023-09-12T12:56:35;32.30;24.60
19174;DHT22;9719;49.322;8.536;2023-09-12T13:01:38;32.20;24.90
19174;DHT22;9719;49.322;8.536;2023-09-12T13:06:41;32.10;28.10
19174;DHT22;9719;49.322;8.536;2023-09-12T13:11:43;32.40;24.50
19174;DHT22;9719;49.322;8.536;2023-09-12T13:16:45;32.60;25.20
19174;DHT22;9719;49.322;8.536;2023-09-12T13:21:48;32.70;25.40
19174;DHT22;9719;49.322;8.536;2023-09-12T13:26:50;32.50;25.40
19174;DHT22;9719;49.322;8.536;2023-09-12T13:31:52;32.40;27.00
19174;DHT22;9719;49.322;8.536;2023-09-12T13:36:55;32.40;40.50
19174;DHT22;9719;49.322;8.536;2023-09-12T13:41:57;32.40;40.90
19174;DHT22;9719;49.322;8.536;2023-09-12T13:47:02;32.50;40.50
19174;DHT22;9719;49.322;8.536;2023-09-12T13:52:05;32.30;41.00
19174;DHT22;9719;49.322;8.536;2023-09-12T13:57:07;32.50;39.30
19174;DHT22;9719;49.322;8.536;2023-09-12T14:02:09;32.60;40.60
19174;DHT22;9719;49.322;8.536;2023-09-12T14:07:12;32.60;41.40
19174;DHT22;9719;49.322;8.536;2023-09-12T14:12:13;32.20;39.80
19174;DHT22;9719;49.322;8.536;2023-09-12T14:17:15;32.10;44.80
19174;DHT22;9719;49.322;8.536;2023-09-12T14:22:18;31.50;46.10
19174;DHT22;9719;49.322;8.536;2023-09-12T14:27:21;31.90;42.20
19174;DHT22;9719;49.322;8.536;2023-09-12T14:32:23;32.30;37.40
19174;DHT22;9719;49.322;8.536;2023-09-12T14:37:26;32.50;41.60
19174;DHT22;9719;49.322;8.536;2023-09-12T14:42:28;32.30;42.00
19174;DHT22;9719;49.322;8.536;2023-09-12T14:47:30;32.20;42.70
19174;DHT22;9719;49.322;8.536;2023-09-12T14:52:34;35.00;32.60
19174;DHT22;9719;49.322;8.536;2023-09-12T14:57:37;37.00;24.90
19174;DHT22;9719;49.322;8.536;2023-09-12T15:02:40;37.10;23.90
19174;DHT22;9719;49.322;8.536;2023-09-12T15:07:44;35.20;26.60
19174;DHT22;9719;49.322;8.536;2023-09-12T15:12:45;33.90;32.70
19174;DHT22;9719;49.322;8.536;2023-09-12T15:17:47;32.60;39.30
19174;DHT22;9719;49.322;8.536;2023-09-12T15:22:50;32.10;42.60
19174;DHT22;9719;49.322;8.536;2023-09-12T15:27:52;31.90;41.10
19174;DHT22;9719;49.322;8.536;2023-09-12T15:32:53;31.80;40.30
19174;DHT22;9719;49.322;8.536;2023-09-12T15:37:56;31.50;42.20
19174;DHT22;9719;49.322;8.536;2023-09-12T15:42:58;31.30;44.10
19174;DHT22;9719;49.322;8.536;2023-09-12T15:48:00;31.30;41.50
19174;DHT22;9719;49.322;8.536;2023-09-12T15:53:03;31.40;39.90
19174;DHT22;9719;49.322;8.536;2023-09-12T15:58:05;31.30;42.50
19174;DHT22;9719;49.322;8.536;2023-09-12T16:03:06;31.20;43.60
19174;DHT22;9719;49.322;8.536;2023-09-12T16:08:10;31.10;44.60
19174;DHT22;9719;49.322;8.536;2023-09-12T16:13:13;30.80;44.00
19174;DHT22;9719;49.322;8.536;2023-09-12T16:18:14;30.70;43.40
19174;DHT22;9719;49.322;8.536;2023-09-12T16:23:17;30.60;44.40
19174;DHT22;9719;49.322;8.536;2023-09-12T16:28:19;30.50;45.20
19174;DHT22;9719;49.322;8.536;2023-09-12T16:33:21;30.30;46.80
19174;DHT22;9719;49.322;8.536;2023-09-12T16:38:24;30.20;47.20
19174;DHT22;9719;49.322;8.536;2023-09-12T16:43:26;30.00;47.80
19174;DHT22;9719;49.322;8.536;2023-09-12T16:48:28;29.90;47.20
19174;DHT22;9719;49.322;8.536;2023-09-12T16:53:31;29.60;48.90
19174;DHT22;9719;49.322;8.536;2023-09-12T16:58:33;29.30;49.50
19174;DHT22;9719;49.322;8.536;2023-09-12T17:03:35;29.00;49.80
19174;DHT22;9719;49.322;8.536;2023-09-12T17:08:38;28.80;49.60
19174;DHT22;9719;49.322;8.536;2023-09-12T17:13:40;28.40;50.50
19174;DHT22;9719;49.322;8.536;2023-09-12T17:18:41;28.30;51.20
19174;DHT22;9719;49.322;8.536;2023-09-12T17:23:44;28.20;52.00
19174;DHT22;9719;49.322;8.536;2023-09-12T17:28:46;27.90;52.20
19174;DHT22;9719;49.322;8.536;2023-09-12T17:33:48;27.90;52.40
19174;DHT22;9719;49.322;8.536;2023-09-12T17:38:51;27.90;52.70
19174;DHT22;9719;49.322;8.536;2023-09-12T17:43:52;27.70;53.10
19174;DHT22;9719;49.322;8.536;2023-09-12T17:48:54;27.70;53.90
19174;DHT22;9719;49.322;8.536;2023-09-12T17:53:57;27.40;55.50
19174;DHT22;9719;49.322;8.536;2023-09-12T17:58:59;27.10;57.70
19174;DHT22;9719;49.322;8.536;2023-09-12T18:04:02;26.50;57.90
19174;DHT22;9719;49.322;8.536;2023-09-12T18:09:05;26.00;60.40
19174;DHT22;9719;49.322;8.536;2023-09-12T18:14:07;25.90;61.40
19174;DHT22;9719;49.322;8.536;2023-09-12T18:19:08;25.80;62.60
19174;DHT22;9719;49.322;8.536;2023-09-12T18:24:11;25.70;62.60
19174;DHT22;9719;49.322;8.536;2023-09-12T18:29:14;25.80;61.50
19174;DHT22;9719;49.322;8.536;2023-09-12T18:34:16;25.80;62.80
19174;DHT22;9719;49.322;8.536;2023-09-12T18:39:19;25.50;65.60
19174;DHT22;9719;49.322;8.536;2023-09-12T18:44:21;25.60;65.80
19174;DHT22;9719;49.322;8.536;2023-09-12T18:49:23;25.70;67.30
19174;DHT22;9719;49.322;8.536;2023-09-12T18:54:26;25.20;69.10
19174;DHT22;9719;49.322;8.536;2023-09-12T18:59:29;25.00;70.30
19174;DHT22;9719;49.322;8.536;2023-09-12T19:04:30;24.90;71.40
19174;DHT22;9719;49.322;8.536;2023-09-12T19:09:35;24.70;72.20
19174;DHT22;9719;49.322;8.536;2023-09-12T19:14:37;24.50;72.60
19174;DHT22;9719;49.322;8.536;2023-09-12T19:19:38;24.10;74.00
19174;DHT22;9719;49.322;8.536;2023-09-12T19:24:41;23.80;75.60
19174;DHT22;9719;49.322;8.536;2023-09-12T19:29:48;23.90;76.30
19174;DHT22;9719;49.322;8.536;2023-09-12T19:34:49;23.80;76.90
19174;DHT22;9719;49.322;8.536;2023-09-12T19:39:52;23.80;77.40
19174;DHT22;9719;49.322;8.536;2023-09-12T19:44:54;23.70;78.40
19174;DHT22;9719;49.322;8.536;2023-09-12T19:49:56;23.70;79.00
19174;DHT22;9719;49.322;8.536;2023-09-12T19:55:00;23.70;79.40
19174;DHT22;9719;49.322;8.536;2023-09-12T20:00:03;23.70;80.70
19174;DHT22;9719;49.322;8.536;2023-09-12T20:05:06;23.30;82.30
19174;DHT22;9719;49.322;8.536;2023-09-12T20:10:09;23.20;83.20
19174;DHT22;9719;49.322;8.536;2023-09-12T20:15:12;23.20;83.20
19174;DHT22;9719;49.322;8.536;2023-09-12T20:20:14;23.20;82.80
19174;DHT22;9719;49.322;8.536;2023-09-12T20:25:17;23.20;84.20
19174;DHT22;9719;49.322;8.536;2023-09-12T20:30:21;23.10;84.90
19174;DHT22;9719;49.322;8.536;2023-09-12T20:35:23;23.20;85.00
19174;DHT22;9719;49.322;8.536;2023-09-12T20:40:27;23.00;85.40
19174;DHT22;9719;49.322;8.536;2023-09-12T20:45:29;22.90;86.40
19174;DHT22;9719;49.322;8.536;2023-09-12T20:50:30;22.80;86.00
19174;DHT22;9719;49.322;8.536;2023-09-12T20:55:37;22.70;86.90
19174;DHT22;9719;49.322;8.536;2023-09-12T21:00:39;22.70;88.10
19174;DHT22;9719;49.322;8.536;2023-09-12T21:05:41;22.30;89.40
19174;DHT22;9719;49.322;8.536;2023-09-12T21:10:46;22.10;90.10
19174;DHT22;9719;49.322;8.536;2023-09-12T21:15:48;22.00;90.80
19174;DHT22;9719;49.322;8.536;2023-09-12T21:20:52;21.90;90.70
19174;DHT22;9719;49.322;8.536;2023-09-12T21:25:55;21.80;91.60
19174;DHT22;9719;49.322;8.536;2023-09-12T21:30:57;21.80;92.00
19174;DHT22;9719;49.322;8.536;2023-09-12T21:35:59;21.80;92.30
19174;DHT22;9719;49.322;8.536;2023-09-12T21:41:02;21.90;92.80
19174;DHT22;9719;49.322;8.536;2023-09-12T21:46:04;21.70;92.40
19174;DHT22;9719;49.322;8.536;2023-09-12T21:51:05;21.80;92.10
19174;DHT22;9719;49.322;8.536;2023-09-12T21:56:09;21.70;91.70
19174;DHT22;9719;49.322;8.536;2023-09-12T22:01:10;21.50;93.00
19174;DHT22;9719;49.322;8.536;2023-09-12T22:06:12;21.30;94.00
19174;DHT22;9719;49.322;8.536;2023-09-12T22:11:15;21.50;93.80
19174;DHT22;9719;49.322;8.536;2023-09-12T22:16:17;21.60;93.90
19174;DHT22;9719;49.322;8.536;2023-09-12T22:21:19;21.40;94.40
19174;DHT22;9719;49.322;8.536;2023-09-12T22:26:22;21.50;93.40
19174;DHT22;9719;49.322;8.536;2023-09-12T22:31:24;21.70;93.30
19174;DHT22;9719;49.322;8.536;2023-09-12T22:36:25;21.70;92.50
19174;DHT22;9719;49.322;8.536;2023-09-12T22:41:28;21.60;92.80
19174;DHT22;9719;49.322;8.536;2023-09-12T22:46:30;21.60;93.30
19174;DHT22;9719;49.322;8.536;2023-09-12T22:51:32;21.80;92.20
19174;DHT22;9719;49.322;8.536;2023-09-12T22:56:35;21.80;92.40
19174;DHT22;9719;49.322;8.536;2023-09-12T23:01:37;21.90;91.70
19174;DHT22;9719;49.322;8.536;2023-09-12T23:06:38;21.90;91.50
19174;DHT22;9719;49.322;8.536;2023-09-12T23:11:41;21.90;91.50
19174;DHT22;9719;49.322;8.536;2023-09-12T23:16:43;21.80;91.50
19174;DHT22;9719;49.322;8.536;2023-09-12T23:21:45;21.70;92.10
19174;DHT22;9719;49.322;8.536;2023-09-12T23:26:48;21.50;93.00
19174;DHT22;9719;49.322;8.536;2023-09-12T23:31:49;21.10;94.00
19174;DHT22;9719;49.322;8.536;2023-09-12T23:36:51;21.10;94.50
19174;DHT22;9719;49.322;8.536;2023-09-12T23:41:54;21.20;94.50
19174;DHT22;9719;49.322;8.536;2023-09-12T23:46:56;21.10;94.80
19174;DHT22;9719;49.322;8.536;2023-09-12T23:51:57;20.90;94.80
19174;DHT22;9719;49.322;8.536;2023-09-12T23:57:00;21.10;94.70
